createdAt,value
2023-02-22T00:00:34.716Z,11.05
2023-02-22T00:03:01.248Z,10.63
2023-02-22T00:05:28.584Z,10.77
2023-02-22T00:07:58.694Z,10.63
2023-02-22T00:10:25.295Z,10.48
2023-02-22T00:12:53.414Z,10.02
2023-02-22T00:15:22.719Z,10.07
2023-02-22T00:17:49.316Z,9.50
2023-02-22T00:20:19.892Z,9.23
2023-02-22T00:22:49.490Z,9.38
2023-02-22T00:25:19.865Z,10.98
2023-02-22T00:27:52.683Z,10.48
2023-02-22T00:30:26.975Z,8.73
2023-02-22T00:32:55.978Z,9.55
2023-02-22T00:35:27.178Z,9.98
2023-02-22T00:37:56.972Z,8.98
2023-02-22T00:40:27.077Z,8.95
2023-02-22T00:42:53.900Z,9.30
2023-02-22T00:45:23.349Z,8.55
2023-02-22T00:47:50.588Z,10.13
2023-02-22T00:50:18.610Z,9.57
2023-02-22T00:52:45.697Z,9.73
2023-02-22T00:55:26.886Z,8.73
2023-02-22T00:57:54.216Z,8.45
2023-02-22T01:00:28.031Z,9.13
2023-02-22T01:02:55.971Z,9.05
2023-02-22T01:05:25.918Z,8.57
2023-02-22T01:07:53.321Z,8.90
2023-02-22T01:10:21.778Z,8.95
2023-02-22T01:12:49.958Z,9.63
2023-02-22T01:15:21.790Z,9.68
2023-02-22T01:17:49.824Z,8.30
2023-02-22T01:20:16.771Z,9.00
2023-02-22T01:22:47.175Z,7.60
2023-02-22T01:25:19.470Z,9.25
2023-02-22T01:27:45.930Z,9.63
2023-02-22T01:30:15.086Z,9.35
2023-02-22T01:32:42.996Z,8.50
2023-02-22T01:35:13.716Z,9.18
2023-02-22T01:37:41.305Z,9.07
2023-02-22T01:40:10.150Z,8.73
2023-02-22T01:42:37.163Z,10.20
2023-02-22T01:45:32.627Z,10.20
2023-02-22T01:48:05.557Z,7.85
2023-02-22T01:50:35.488Z,9.05
2023-02-22T01:53:03.221Z,9.88
2023-02-22T01:55:30.613Z,8.70
2023-02-22T01:57:57.603Z,8.63
2023-02-22T02:00:27.580Z,8.85
2023-02-22T02:03:00.072Z,9.38
2023-02-22T02:05:28.052Z,9.23
2023-02-22T02:07:54.470Z,8.32
2023-02-22T02:10:21.575Z,9.33
2023-02-22T02:12:50.647Z,8.75
2023-02-22T02:15:34.923Z,9.50
2023-02-22T02:18:04.778Z,8.82
2023-02-22T02:20:58.769Z,9.65
2023-02-22T02:23:47.488Z,9.63
2023-02-22T02:26:32.419Z,8.55
2023-02-22T02:29:22.248Z,9.13
2023-02-22T02:32:06.119Z,8.60
2023-02-22T02:34:58.243Z,9.18
2023-02-22T02:37:36.829Z,11.00
2023-02-22T02:40:22.206Z,10.55
2023-02-22T02:43:05.115Z,9.40
2023-02-22T02:45:49.554Z,10.45
2023-02-22T02:48:18.945Z,11.52
2023-02-22T02:50:48.735Z,10.80
2023-02-22T02:53:21.136Z,9.95
2023-02-22T02:55:47.842Z,10.18
2023-02-22T02:58:20.153Z,10.60
2023-02-22T03:00:49.892Z,10.48
2023-02-22T03:03:34.784Z,11.17
2023-02-22T03:06:34.546Z,10.48
2023-02-22T03:09:39.101Z,10.35
2023-02-22T03:12:20.837Z,11.32
2023-02-22T03:15:09.197Z,10.32
2023-02-22T03:17:53.406Z,12.10
2023-02-22T03:20:32.109Z,10.43
2023-02-22T03:23:19.191Z,11.00
2023-02-22T03:25:53.631Z,11.65
2023-02-22T03:28:26.315Z,11.18
2023-02-22T03:31:05.980Z,11.60
2023-02-22T03:33:48.863Z,11.48
2023-02-22T03:36:39.105Z,10.82
2023-02-22T03:39:10.918Z,10.98
2023-02-22T03:41:39.121Z,11.57
2023-02-22T03:44:11.792Z,10.97
2023-02-22T03:46:40.915Z,12.00
2023-02-22T03:49:51.325Z,10.50
2023-02-22T03:52:18.910Z,11.00
2023-02-22T03:54:45.853Z,11.85
2023-02-22T03:57:18.889Z,11.93
2023-02-22T03:59:46.228Z,11.05
2023-02-22T04:02:12.666Z,11.80
2023-02-22T04:04:39.641Z,11.82
2023-02-22T04:07:06.101Z,11.77
2023-02-22T04:09:32.806Z,11.93
2023-02-22T04:11:59.239Z,12.02
2023-02-22T04:14:25.942Z,12.88
2023-02-22T04:16:52.873Z,12.93
2023-02-22T04:19:19.385Z,11.82
2023-02-22T04:21:45.961Z,12.77
2023-02-22T04:24:12.631Z,12.20
2023-02-22T04:26:39.062Z,12.30
2023-02-22T04:29:05.485Z,13.73
2023-02-22T04:31:33.750Z,10.95
2023-02-22T04:34:02.400Z,11.57
2023-02-22T04:36:31.762Z,12.63
2023-02-22T04:38:59.203Z,12.25
2023-02-22T04:41:25.778Z,12.13
2023-02-22T04:43:52.421Z,11.93
2023-02-22T04:46:19.856Z,11.67
2023-02-22T04:48:46.304Z,11.65
2023-02-22T04:51:13.100Z,11.57
2023-02-22T04:53:39.635Z,12.27
2023-02-22T04:56:06.415Z,11.10
2023-02-22T04:58:32.880Z,11.37
2023-02-22T05:01:00.953Z,13.43
2023-02-22T05:03:27.451Z,12.15
2023-02-22T05:05:54.025Z,11.85
2023-02-22T05:08:20.510Z,10.23
2023-02-22T05:10:46.936Z,11.57
2023-02-22T05:13:13.409Z,12.52
2023-02-22T05:15:39.856Z,11.32
2023-02-22T05:18:06.286Z,11.85
2023-02-22T05:20:35.433Z,12.95
2023-02-22T05:23:02.850Z,12.43
2023-02-22T05:25:29.734Z,13.18
2023-02-22T05:27:59.437Z,11.98
2023-02-22T05:30:28.747Z,12.40
2023-02-22T05:32:55.566Z,13.13
2023-02-22T05:35:23.402Z,12.93
2023-02-22T05:37:50.841Z,13.25
2023-02-22T05:40:23.138Z,13.02
2023-02-22T05:42:50.775Z,12.60
2023-02-22T05:45:19.517Z,13.30
2023-02-22T05:47:46.594Z,13.33
2023-02-22T05:50:13.986Z,15.18
2023-02-22T05:52:41.963Z,14.10
2023-02-22T05:55:10.268Z,13.43
2023-02-22T05:57:36.800Z,15.38
2023-02-22T06:00:06.869Z,15.33
2023-02-22T06:02:34.017Z,14.77
2023-02-22T06:05:00.780Z,14.45
2023-02-22T06:07:27.294Z,16.70
2023-02-22T06:09:53.870Z,13.13
2023-02-22T06:12:20.603Z,15.13
2023-02-22T06:14:47.068Z,14.55
2023-02-22T06:17:15.306Z,14.43
2023-02-22T06:19:41.917Z,15.27
2023-02-22T06:22:15.863Z,12.20
2023-02-22T06:24:42.294Z,14.70
2023-02-22T06:27:08.873Z,13.43
2023-02-22T06:29:35.282Z,15.48
2023-02-22T06:32:02.068Z,14.10
2023-02-22T06:34:28.555Z,13.85
2023-02-22T06:36:54.989Z,16.07
2023-02-22T06:39:21.412Z,15.90
2023-02-22T06:41:48.201Z,14.48
2023-02-22T06:44:15.311Z,14.88
2023-02-22T06:46:49.301Z,15.25
2023-02-22T06:49:15.745Z,14.93
2023-02-22T06:51:42.313Z,14.15
2023-02-22T06:54:09.764Z,15.20
2023-02-22T06:56:36.202Z,14.52
2023-02-22T06:59:02.962Z,14.45
2023-02-22T07:01:29.841Z,13.83
2023-02-22T07:03:56.646Z,14.65
2023-02-22T07:06:23.650Z,14.55
2023-02-22T07:08:50.158Z,14.55
2023-02-22T07:11:17.615Z,13.80
2023-02-22T07:13:44.284Z,14.23
2023-02-22T07:16:10.871Z,14.82
2023-02-22T07:18:37.448Z,16.65
2023-02-22T07:21:04.564Z,16.35
2023-02-22T07:23:31.013Z,15.57
2023-02-22T07:26:00.654Z,13.50
2023-02-22T07:28:27.193Z,15.27
2023-02-22T07:30:53.674Z,14.52
2023-02-22T07:33:20.160Z,14.95
2023-02-22T07:35:48.934Z,15.55
2023-02-22T07:38:17.374Z,15.47
2023-02-22T07:40:45.040Z,14.52
2023-02-22T07:43:19.942Z,15.07
2023-02-22T07:45:48.132Z,16.60
2023-02-22T07:48:17.760Z,14.70
2023-02-22T07:50:44.929Z,15.27
2023-02-22T07:53:18.295Z,15.10
2023-02-22T07:55:45.078Z,14.60
2023-02-22T07:58:15.865Z,14.90
2023-02-22T08:00:44.123Z,14.00
2023-02-22T08:03:13.468Z,12.40
2023-02-22T08:05:42.241Z,13.02
2023-02-22T08:08:08.822Z,14.65
2023-02-22T08:10:36.091Z,13.15
2023-02-22T08:13:03.513Z,13.73
2023-02-22T08:15:38.328Z,14.43
2023-02-22T08:18:10.316Z,13.85
2023-02-22T08:20:38.450Z,13.20
2023-02-22T08:23:06.220Z,13.68
2023-02-22T08:25:33.088Z,12.50
2023-02-22T08:28:01.929Z,13.47
2023-02-22T08:30:30.791Z,12.95
2023-02-22T08:32:58.392Z,13.18
2023-02-22T08:35:25.618Z,14.27
2023-02-22T08:37:54.042Z,12.18
2023-02-22T08:40:23.306Z,12.83
2023-02-22T08:42:49.805Z,13.45
2023-02-22T08:45:16.998Z,15.93
2023-02-22T08:47:43.693Z,12.30
2023-02-22T08:50:16.792Z,13.05
2023-02-22T08:52:43.371Z,12.73
2023-02-22T08:55:09.917Z,12.82
2023-02-22T08:57:36.344Z,17.52
2023-02-22T09:00:05.144Z,15.52
2023-02-22T09:02:31.600Z,13.10
2023-02-22T09:04:58.063Z,13.40
2023-02-22T09:07:24.697Z,13.50
2023-02-22T09:09:51.145Z,13.40
2023-02-22T09:12:17.587Z,13.00
2023-02-22T09:14:44.057Z,13.52
2023-02-22T09:17:10.489Z,13.50
2023-02-22T09:19:36.967Z,13.40
2023-02-22T09:22:03.456Z,12.88
2023-02-22T09:24:30.410Z,12.23
2023-02-22T09:26:56.910Z,14.40
2023-02-22T09:29:25.889Z,13.70
2023-02-22T09:31:54.326Z,13.05
2023-02-22T09:34:29.545Z,14.25
2023-02-22T09:36:57.744Z,13.18
2023-02-22T09:39:24.494Z,14.27
2023-02-22T09:41:59.682Z,12.20
2023-02-22T09:44:55.817Z,12.30
2023-02-22T09:47:32.500Z,13.15
2023-02-22T09:50:22.640Z,11.65
2023-02-22T09:53:18.176Z,11.75
2023-02-22T09:55:49.743Z,10.70
2023-02-22T09:58:27.281Z,11.48
2023-02-22T10:01:05.104Z,11.45
2023-02-22T10:03:46.637Z,12.18
2023-02-22T10:06:16.277Z,11.82
2023-02-22T10:08:45.083Z,12.07
2023-02-22T10:11:29.861Z,11.40
2023-02-22T10:14:08.562Z,12.15
2023-02-22T10:16:57.091Z,11.98
2023-02-22T10:19:47.602Z,11.30
2023-02-22T10:22:19.123Z,11.63
2023-02-22T10:25:00.618Z,12.30
2023-02-22T10:27:53.211Z,12.38
2023-02-22T10:30:42.312Z,12.35
2023-02-22T10:33:22.544Z,10.90
2023-02-22T10:35:51.641Z,12.23
2023-02-22T10:38:30.388Z,11.52
2023-02-22T10:41:08.935Z,12.40
2023-02-22T10:43:43.008Z,11.68
2023-02-22T10:46:15.291Z,13.07
2023-02-22T10:48:44.765Z,12.33
2023-02-22T10:51:11.667Z,11.93
2023-02-22T10:53:41.069Z,11.80
2023-02-22T10:56:22.295Z,12.60
2023-02-22T10:59:02.347Z,12.60
2023-02-22T11:01:31.814Z,11.83
2023-02-22T11:04:10.818Z,11.88
2023-02-22T11:06:38.529Z,12.13
2023-02-22T11:09:10.397Z,12.38
2023-02-22T11:11:38.239Z,12.60
2023-02-22T11:14:06.793Z,11.97
2023-02-22T11:16:36.448Z,13.88
2023-02-22T11:19:30.907Z,13.00
2023-02-22T11:22:10.035Z,13.98
2023-02-22T11:27:28.691Z,20.53
2023-02-22T11:30:07.689Z,24.75
2023-02-22T11:32:36.574Z,18.15
2023-02-22T11:35:28.150Z,15.00
2023-02-22T11:38:10.536Z,18.38
2023-02-22T11:40:36.970Z,12.53
2023-02-22T11:43:16.002Z,18.13
2023-02-22T11:46:08.418Z,21.30
2023-02-22T11:48:39.542Z,45.75
2023-02-22T11:51:14.088Z,23.38
2023-02-22T11:53:55.112Z,16.50
2023-02-22T11:56:38.359Z,12.48
2023-02-22T11:59:23.403Z,14.05
2023-02-22T12:02:08.622Z,12.20
2023-02-22T12:04:53.219Z,12.23
2023-02-22T12:07:19.746Z,11.87
2023-02-22T12:09:55.165Z,12.63
2023-02-22T12:12:36.891Z,11.60
2023-02-22T12:15:31.821Z,12.95
2023-02-22T12:18:18.537Z,13.65
2023-02-22T12:20:56.837Z,11.27
2023-02-22T12:23:40.856Z,12.57
2023-02-22T12:26:28.164Z,11.55
2023-02-22T12:29:06.316Z,12.52
2023-02-22T12:31:58.147Z,11.82
2023-02-22T12:34:27.704Z,12.07
2023-02-22T12:37:05.902Z,12.07
2023-02-22T12:40:08.470Z,11.95
2023-02-22T12:42:47.034Z,11.88
2023-02-22T12:45:27.146Z,11.60
2023-02-22T12:48:17.368Z,12.70
2023-02-22T12:50:47.456Z,12.75
2023-02-22T12:53:21.245Z,11.93
2023-02-22T12:55:56.602Z,12.10
2023-02-22T12:58:49.424Z,12.15
2023-02-22T13:01:24.110Z,11.80
2023-02-22T13:03:50.606Z,12.73
2023-02-22T13:06:17.524Z,12.18
2023-02-22T13:09:24.506Z,12.15
2023-02-22T13:12:16.730Z,13.25
2023-02-22T13:15:05.178Z,11.60
2023-02-22T13:17:43.064Z,12.00
2023-02-22T13:20:30.660Z,11.77
2023-02-22T13:23:13.902Z,11.80
2023-02-22T13:25:45.758Z,12.00
2023-02-22T13:28:32.148Z,12.53
2023-02-22T13:31:21.059Z,12.52
2023-02-22T13:34:06.411Z,12.05
2023-02-22T13:36:41.845Z,12.35
2023-02-22T13:39:17.747Z,11.88
2023-02-22T13:41:51.389Z,12.60
2023-02-22T13:44:38.454Z,12.05
2023-02-22T13:47:23.791Z,17.45
2023-02-22T13:50:15.727Z,22.98
2023-02-22T13:52:43.640Z,13.95
2023-02-22T13:55:36.738Z,11.30
2023-02-22T13:58:06.515Z,19.45
2023-02-22T14:00:41.259Z,28.50
2023-02-22T14:03:29.974Z,15.43
2023-02-22T14:06:00.917Z,13.10
2023-02-22T14:08:31.339Z,23.13
2023-02-22T14:10:59.551Z,12.40
2023-02-22T14:13:32.233Z,14.52
2023-02-22T14:16:02.485Z,20.58
2023-02-22T14:18:42.522Z,12.25
2023-02-22T14:21:12.046Z,23.73
2023-02-22T14:23:42.650Z,14.77
2023-02-22T14:26:22.732Z,15.55
2023-02-22T14:28:55.247Z,21.52
2023-02-22T14:31:35.613Z,14.23
2023-02-22T14:34:17.565Z,26.93
2023-02-22T14:37:01.159Z,23.00
2023-02-22T14:39:51.407Z,18.67
2023-02-22T14:42:27.259Z,14.35
2023-02-22T14:45:21.752Z,11.82
2023-02-22T14:48:13.627Z,14.90
2023-02-22T14:50:40.045Z,12.75
2023-02-22T14:53:12.705Z,11.00
2023-02-22T14:55:47.619Z,11.98
2023-02-22T14:58:26.205Z,10.60
2023-02-22T15:00:56.764Z,11.83
2023-02-22T15:03:38.253Z,14.65
2023-02-22T15:06:06.033Z,18.65
2023-02-22T15:08:34.234Z,14.95
2023-02-22T15:11:02.371Z,11.02
2023-02-22T15:13:34.247Z,10.93
2023-02-22T15:16:04.306Z,11.60
2023-02-22T15:18:57.983Z,12.40
2023-02-22T15:21:27.617Z,11.30
2023-02-22T15:24:01.687Z,11.30
2023-02-22T15:26:38.848Z,10.87
2023-02-22T15:29:13.182Z,11.23
2023-02-22T15:31:41.395Z,11.57
2023-02-22T15:34:16.883Z,10.85
2023-02-22T15:36:45.215Z,11.10
2023-02-22T15:39:44.255Z,11.30
2023-02-22T15:42:21.079Z,10.55
2023-02-22T15:44:49.693Z,10.80
2023-02-22T15:47:21.775Z,12.27
2023-02-22T15:50:21.203Z,12.27
2023-02-22T15:53:02.746Z,10.77
2023-02-22T15:55:38.384Z,11.25
2023-02-22T15:58:23.935Z,10.48
2023-02-22T16:01:03.152Z,12.65
2023-02-22T16:03:48.537Z,11.88
2023-02-22T16:06:30.479Z,10.97
2023-02-22T16:09:00.198Z,11.68
2023-02-22T16:11:40.813Z,11.27
2023-02-22T16:14:31.138Z,11.10
2023-02-22T16:17:30.726Z,11.95
2023-02-22T16:19:59.212Z,11.50
2023-02-22T16:22:33.808Z,12.45
2023-02-22T16:25:27.449Z,11.85
2023-02-22T16:27:58.027Z,15.45
2023-02-22T16:30:35.150Z,22.05
2023-02-22T16:33:05.772Z,19.27
2023-02-22T16:35:35.438Z,18.95
2023-02-22T16:38:03.352Z,19.33
2023-02-22T16:40:52.237Z,18.48
2023-02-22T16:43:22.575Z,14.40
2023-02-22T16:45:49.099Z,15.57
2023-02-22T16:48:19.622Z,16.20
2023-02-22T16:50:47.965Z,14.23
2023-02-22T16:53:20.003Z,13.20
2023-02-22T16:55:51.830Z,15.65
2023-02-22T16:58:19.265Z,14.30
2023-02-22T17:00:45.781Z,14.65
2023-02-22T17:03:18.299Z,15.70
2023-02-22T17:05:44.980Z,16.30
2023-02-22T17:08:11.624Z,14.50
2023-02-22T17:10:38.147Z,14.40
2023-02-22T17:13:21.888Z,15.57
2023-02-22T17:15:50.116Z,14.68
2023-02-22T17:18:22.664Z,14.35
2023-02-22T17:20:54.393Z,14.88
2023-02-22T17:23:22.451Z,17.07
2023-02-22T17:25:53.575Z,15.57
2023-02-22T17:28:21.223Z,14.82
2023-02-22T17:30:49.006Z,16.02
2023-02-22T17:33:19.085Z,15.80
2023-02-22T17:35:47.027Z,17.17
2023-02-22T17:38:18.482Z,15.48
2023-02-22T17:40:51.970Z,15.63
2023-02-22T17:43:19.411Z,15.60
2023-02-22T17:45:46.209Z,16.38
2023-02-22T17:48:13.905Z,15.43
2023-02-22T17:50:42.144Z,16.67
2023-02-22T17:53:10.955Z,17.48
2023-02-22T17:55:40.571Z,17.52
2023-02-22T17:58:14.497Z,19.35
2023-02-22T18:00:44.776Z,19.97
2023-02-22T18:03:21.202Z,19.50
2023-02-22T18:05:50.037Z,22.35
2023-02-22T18:08:16.592Z,20.98
2023-02-22T18:10:44.109Z,21.75
2023-02-22T18:13:16.695Z,22.13
2023-02-22T18:15:43.585Z,23.42
2023-02-22T18:18:10.102Z,22.50
2023-02-22T18:20:39.192Z,23.63
2023-02-22T18:23:07.552Z,23.90
2023-02-22T18:25:35.818Z,23.33
2023-02-22T18:28:06.824Z,22.55
2023-02-22T18:30:35.925Z,22.40
2023-02-22T18:33:03.693Z,24.40
2023-02-22T18:35:30.490Z,23.13
2023-02-22T18:37:56.918Z,23.87
2023-02-22T18:40:23.843Z,24.95
2023-02-22T18:42:50.297Z,22.98
2023-02-22T18:45:17.198Z,24.30
2023-02-22T18:47:45.541Z,24.52
2023-02-22T18:50:13.189Z,27.47
2023-02-22T18:52:46.340Z,40.83
2023-02-22T18:55:18.292Z,43.22
2023-02-22T18:57:45.852Z,31.92
2023-02-22T19:00:15.891Z,57.80
2023-02-22T19:02:45.562Z,42.40
2023-02-22T19:05:17.289Z,30.92
2023-02-22T19:07:45.096Z,36.35
2023-02-22T19:10:11.651Z,31.08
2023-02-22T19:12:38.248Z,32.60
2023-02-22T19:15:04.905Z,30.23
2023-02-22T19:17:32.576Z,42.88
2023-02-22T19:19:59.081Z,32.00
2023-02-22T19:22:32.754Z,28.90
2023-02-22T19:25:01.227Z,31.42
2023-02-22T19:27:31.348Z,31.03
2023-02-22T19:29:58.594Z,29.15
2023-02-22T19:32:25.523Z,31.08
2023-02-22T19:34:53.135Z,29.20
2023-02-22T19:37:22.727Z,31.48
2023-02-22T19:39:49.232Z,29.33
2023-02-22T19:42:15.646Z,31.10
2023-02-22T19:44:42.172Z,30.75
2023-02-22T19:47:10.018Z,31.58
2023-02-22T19:49:37.742Z,32.80
2023-02-22T19:52:06.532Z,30.73
2023-02-22T19:54:33.536Z,31.13
2023-02-22T19:57:00.602Z,30.15
2023-02-22T19:59:27.402Z,30.23
2023-02-22T20:01:54.829Z,30.30
2023-02-22T20:04:21.841Z,33.10
2023-02-22T20:06:54.739Z,29.45
2023-02-22T20:09:29.731Z,28.63
2023-02-22T20:11:56.529Z,29.70
2023-02-22T20:14:26.198Z,28.35
2023-02-22T20:16:53.796Z,28.43
2023-02-22T20:19:22.460Z,29.52
2023-02-22T20:21:49.519Z,28.20
2023-02-22T20:24:18.266Z,28.70
2023-02-22T20:26:46.414Z,28.42
2023-02-22T20:29:13.991Z,27.97
2023-02-22T20:31:42.064Z,28.55
2023-02-22T20:34:09.987Z,27.00
2023-02-22T20:36:38.637Z,25.83
2023-02-22T20:39:07.508Z,25.55
2023-02-22T20:41:35.535Z,25.97
2023-02-22T20:44:03.290Z,26.15
2023-02-22T20:46:37.348Z,26.98
2023-02-22T20:49:07.448Z,26.52
2023-02-22T20:51:34.983Z,25.13
2023-02-22T20:54:01.630Z,25.47
2023-02-22T20:56:30.340Z,24.75
2023-02-22T20:58:58.354Z,24.60
2023-02-22T21:01:25.651Z,25.20
2023-02-22T21:03:52.157Z,23.92
2023-02-22T21:06:21.450Z,24.17
2023-02-22T21:08:53.800Z,24.52
2023-02-22T21:11:21.482Z,25.40
2023-02-22T21:13:48.168Z,24.75
2023-02-22T21:16:27.240Z,27.13
2023-02-22T21:18:56.392Z,33.93
2023-02-22T21:21:23.540Z,28.60
2023-02-22T21:23:52.379Z,25.48
2023-02-22T21:26:23.628Z,27.02
2023-02-22T21:28:52.072Z,25.45
2023-02-22T21:31:21.798Z,23.80
2023-02-22T21:33:50.916Z,24.15
2023-02-22T21:36:18.313Z,27.02
2023-02-22T21:38:48.898Z,27.65
2023-02-22T21:41:17.386Z,26.13
2023-02-22T21:43:48.419Z,24.47
2023-02-22T21:46:14.881Z,25.95
2023-02-22T21:48:45.087Z,25.10
2023-02-22T21:51:14.024Z,24.15
2023-02-22T21:53:48.632Z,23.42
2023-02-22T21:56:23.032Z,24.43
2023-02-22T21:59:14.122Z,23.80
2023-02-22T22:01:49.901Z,23.15
2023-02-22T22:04:19.544Z,23.85
2023-02-22T22:06:48.963Z,23.88
2023-02-22T22:09:18.320Z,24.03
2023-02-22T22:11:53.485Z,23.48
2023-02-22T22:14:23.158Z,24.38
2023-02-22T22:16:51.924Z,22.15
2023-02-22T22:19:18.442Z,23.40
2023-02-22T22:21:46.678Z,22.83
2023-02-22T22:24:13.375Z,24.55
2023-02-22T22:26:40.093Z,23.05
2023-02-22T22:29:09.915Z,23.45
2023-02-22T22:31:36.493Z,23.45
2023-02-22T22:34:03.036Z,21.63
2023-02-22T22:36:29.528Z,22.15
2023-02-22T22:38:58.821Z,21.92
2023-02-22T22:41:28.101Z,21.75
2023-02-22T22:43:55.122Z,23.10
2023-02-22T22:46:21.927Z,22.83
2023-02-22T22:48:48.599Z,23.42
2023-02-22T22:51:20.894Z,23.27
2023-02-22T22:53:49.497Z,22.35
2023-02-22T22:56:19.197Z,22.13
2023-02-22T22:58:50.791Z,21.30
2023-02-22T23:01:19.562Z,22.85
2023-02-22T23:03:56.528Z,21.52
2023-02-22T23:06:27.214Z,22.38
2023-02-22T23:08:59.933Z,22.85
2023-02-22T23:11:33.564Z,21.40
2023-02-22T23:14:03.065Z,22.33
2023-02-22T23:16:29.525Z,21.45
2023-02-22T23:18:55.943Z,23.02
2023-02-22T23:21:24.384Z,22.23
2023-02-22T23:23:59.708Z,21.37
2023-02-22T23:26:26.884Z,20.60
2023-02-22T23:28:56.289Z,23.25
2023-02-22T23:31:23.761Z,20.67
2023-02-22T23:33:50.728Z,21.10
2023-02-22T23:36:18.701Z,19.60
2023-02-22T23:38:45.859Z,21.90
2023-02-22T23:41:16.646Z,20.17
2023-02-22T23:43:44.898Z,19.55
2023-02-22T23:46:18.576Z,19.45
2023-02-22T23:48:54.407Z,19.63
2023-02-22T23:51:26.394Z,20.35
2023-02-22T23:53:57.204Z,18.10
2023-02-22T23:56:27.368Z,18.55
2023-02-22T23:58:57.268Z,20.13
